CheckWX is a tool to help pilots better visualize weather data.  It is not intended as a substitute for an official pre-flight weather briefing.

17:29:31 UTC

LFCR METAR
Rodez-Marcillac Airport
Rodez/Marcillac, France
Current

30 mins ago

LFCR 181700Z AUTO 31010KT 260V340 CAVOK 23/11 Q1018 NOSIG
Observed
Jul-18 @ 17:00 UTC
Wind
  • 310° at 10 KTS
Visibility
10,000+ meters
Flight Rules
VFR
Cloud Levels
  • Clear skies
Temperature
23°C / 73°F
Dewpoint
11°C / 52°F
Humidity
47%
Altimeter
30.06" Hg
Pressure
1017.92 hPa
Previous

60 mins ago

LFCR 181630Z AUTO 29010KT CAVOK 23/11 Q1018 NOSIG
Observed
Jul-18 @ 16:30 UTC
Wind
  • 290° at 10 KTS
Visibility
10,000+ meters
Flight Rules
VFR
Cloud Levels
  • Clear skies
Temperature
23°C / 73°F
Dewpoint
11°C / 52°F
Humidity
47%
Altimeter
30.06" Hg
Pressure
1017.92 hPa
Previous

1 hour ago

LFCR 181600Z AUTO 31011KT 280V340 CAVOK 23/11 Q1018 NOSIG
Observed
Jul-18 @ 16:00 UTC
Wind
  • 310° at 11 KTS
Visibility
10,000+ meters
Flight Rules
VFR
Cloud Levels
  • Clear skies
Temperature
23°C / 73°F
Dewpoint
11°C / 52°F
Humidity
47%
Altimeter
30.06" Hg
Pressure
1017.92 hPa